Time;durP1;ratioP1;P1;durP2;ratioP2;P2;SDS_P1;SDS_P2;PMS_P1;PMS_P2;Temp;Humidity;BMP_temperature;BMP_pressure;BME280_temperature;BME280_humidity;BME280_pressure;Samples;Min_cycle;Max_cycle;Signal;HPM_P1;HPM_P2
2022/06/11 00:00:42;;;;;;;2.70;2.43;;;25.60;50.60;;;;;;5074752;28;20465;-79
2022/06/11 00:03:09;;;;;;;2.40;2.20;;;25.60;50.60;;;;;;5075179;28;20457;-79
2022/06/11 00:05:36;;;;;;;2.80;2.60;;;25.60;50.70;;;;;;5075535;28;20159;-79
2022/06/11 00:08:03;;;;;;;2.60;2.40;;;25.60;51.20;;;;;;5076386;28;20492;-80
2022/06/11 00:10:28;;;;;;;2.50;2.30;;;25.60;50.70;;;;;;5076377;28;20410;-81
2022/06/11 00:12:54;;;;;;;2.57;2.37;;;25.60;50.70;;;;;;5075872;28;20413;-81
2022/06/11 00:15:20;;;;;;;3.10;2.23;;;25.60;50.70;;;;;;5076365;28;20179;-80
2022/06/11 00:17:46;;;;;;;2.40;2.20;;;25.60;50.70;;;;;;5076392;28;20165;-81
2022/06/11 00:20:12;;;;;;;3.90;2.80;;;25.60;50.70;;;;;;5076133;28;20179;-81
2022/06/11 00:22:40;;;;;;;3.37;2.50;;;25.60;50.70;;;;;;5076611;28;20195;-80
2022/06/11 00:25:06;;;;;;;2.40;2.20;;;25.60;50.70;;;;;;5076724;28;20405;-80
2022/06/11 00:27:32;;;;;;;2.63;2.43;;;25.60;50.70;;;;;;5077154;28;20433;-80
2022/06/11 00:29:58;;;;;;;2.60;2.40;;;25.60;50.60;;;;;;5076646;28;20429;-80
2022/06/11 00:32:27;;;;;;;2.43;2.20;;;25.60;50.60;;;;;;5077438;28;20206;-80
2022/06/11 00:34:53;;;;;;;3.93;2.50;;;25.60;50.60;;;;;;5077891;28;20422;-80
2022/06/11 00:37:20;;;;;;;3.07;2.77;;;25.60;50.50;;;;;;5078182;28;20170;-80
2022/06/11 00:39:46;;;;;;;2.40;2.20;;;25.60;50.60;;;;;;5077590;28;20438;-80
2022/06/11 00:42:22;;;;;;;2.93;2.60;;;25.60;50.50;;;;;;5077984;28;20386;-80
2022/06/11 00:44:49;;;;;;;3.00;2.80;;;25.60;50.50;;;;;;5075481;28;20421;-80
2022/06/11 00:47:22;;;;;;;2.33;2.13;;;25.60;50.50;;;;;;5073341;28;20440;-79
2022/06/11 00:49:56;;;;;;;3.50;3.00;;;25.50;50.50;;;;;;5070765;28;20402;-80
2022/06/11 00:52:37;;;;;;;3.23;2.93;;;25.60;50.50;;;;;;5069308;28;20408;-80
2022/06/11 00:55:17;;;;;;;2.40;2.20;;;25.60;50.50;;;;;;5069470;28;20424;-80
2022/06/11 00:57:49;;;;;;;2.90;2.57;;;25.60;50.50;;;;;;5067601;28;20394;-80
2022/06/11 01:00:33;;;;;;;2.70;2.50;;;25.50;50.40;;;;;;5065956;28;20402;-80
2022/06/11 01:02:59;;;;;;;2.57;2.37;;;25.50;50.40;;;;;;5065445;28;20459;-80
2022/06/11 01:05:31;;;;;;;3.33;3.03;;;25.50;50.40;;;;;;5064378;28;20445;-80
2022/06/11 01:08:14;;;;;;;2.50;2.30;;;25.50;50.40;;;;;;5063897;28;20409;-79
2022/06/11 01:11:11;;;;;;;2.60;2.40;;;25.50;50.40;;;;;;5063821;28;20406;-79
2022/06/11 01:13:55;;;;;;;2.30;2.20;;;25.50;50.40;;;;;;5065143;28;20489;-80
2022/06/11 01:16:34;;;;;;;2.37;2.17;;;25.50;50.40;;;;;;5065372;28;20398;-80
2022/06/11 01:19:19;;;;;;;2.93;2.63;;;25.50;50.40;;;;;;5066044;28;20405;-80
2022/06/11 01:22:13;;;;;;;2.70;2.50;;;25.50;50.40;;;;;;5064681;28;20398;-80
2022/06/11 01:25:18;;;;;;;2.60;2.40;;;25.50;50.50;;;;;;5067395;28;20402;-80
2022/06/11 01:28:11;;;;;;;2.40;2.20;;;25.50;50.40;;;;;;5066300;28;20420;-80
2022/06/11 01:30:54;;;;;;;2.73;2.53;;;25.50;50.40;;;;;;5066267;28;20402;-80
2022/06/11 01:33:27;;;;;;;3.00;2.80;;;25.50;50.40;;;;;;5068741;28;20394;-80
2022/06/11 01:36:18;;;;;;;3.00;2.60;;;25.50;50.40;;;;;;5068208;28;20406;-80
2022/06/11 01:38:53;;;;;;;2.50;2.30;;;25.50;50.40;;;;;;5068501;28;20425;-80
2022/06/11 01:41:41;;;;;;;3.43;3.13;;;25.50;50.40;;;;;;5068714;28;20752;-80
2022/06/11 01:44:12;;;;;;;2.53;2.33;;;25.50;50.30;;;;;;5069133;28;20451;-80
2022/06/11 01:46:44;;;;;;;2.90;2.60;;;25.50;50.30;;;;;;5070518;28;20409;-80
2022/06/11 01:49:22;;;;;;;2.67;2.47;;;25.50;50.20;;;;;;5071301;28;20433;-80
2022/06/11 01:52:04;;;;;;;2.80;2.50;;;25.50;50.20;;;;;;5068206;28;20413;-80
2022/06/11 01:54:30;;;;;;;2.90;2.70;;;25.50;50.20;;;;;;5070901;28;20509;-80
2022/06/11 01:57:21;;;;;;;2.60;2.40;;;25.50;50.20;;;;;;5072637;28;20432;-80
2022/06/11 02:00:09;;;;;;;2.70;2.50;;;25.50;50.20;;;;;;5069863;28;20178;-80
2022/06/11 02:02:56;;;;;;;2.70;2.50;;;25.50;50.10;;;;;;5070506;28;20445;-80
2022/06/11 02:05:59;;;;;;;2.97;2.77;;;25.40;50.10;;;;;;5067330;28;20427;-80
2022/06/11 02:08:58;;;;;;;2.63;2.43;;;25.50;50.10;;;;;;5066257;28;20398;-79
2022/06/11 02:11:32;;;;;;;3.07;2.40;;;25.40;50.10;;;;;;5067259;28;20416;-79
2022/06/11 02:14:17;;;;;;;2.60;2.40;;;25.40;50.10;;;;;;5067043;28;20407;-79
2022/06/11 02:16:52;;;;;;;2.63;2.43;;;25.40;50.10;;;;;;5066271;28;20885;-79
2022/06/11 02:19:54;;;;;;;2.50;2.30;;;25.40;50.00;;;;;;5066768;28;20432;-79
2022/06/11 02:22:23;;;;;;;2.50;2.30;;;25.40;50.00;;;;;;5017355;28;20471;-79
2022/06/11 02:25:06;;;;;;;2.40;2.20;;;25.40;50.00;;;;;;5075988;28;20418;-79
2022/06/11 02:27:34;;;;;;;2.97;2.77;;;25.40;49.90;;;;;;5077703;28;20425;-79
2022/06/11 02:30:01;;;;;;;2.70;2.50;;;25.40;49.90;;;;;;5068214;28;20786;-79
2022/06/11 02:32:29;;;;;;;2.37;2.17;;;25.40;49.90;;;;;;5069802;28;20421;-79
2022/06/11 02:35:03;;;;;;;2.93;2.60;;;25.40;49.90;;;;;;5068107;28;20421;-79
2022/06/11 02:37:58;;;;;;;2.90;2.70;;;25.40;49.80;;;;;;5069172;28;20439;-80
2022/06/11 02:40:29;;;;;;;2.77;2.20;;;25.40;49.70;;;;;;5069671;28;20438;-81
2022/06/11 02:42:55;;;;;;;2.77;2.40;;;25.40;49.80;;;;;;5069035;28;20480;-81
2022/06/11 02:45:21;;;;;;;2.60;2.40;;;25.40;49.70;;;;;;5071042;28;20471;-80
2022/06/11 02:47:51;;;;;;;3.60;2.87;;;25.40;49.70;;;;;;5071962;28;20424;-80
2022/06/11 02:50:30;;;;;;;2.70;2.50;;;25.40;49.60;;;;;;5071818;28;20410;-81
2022/06/11 02:52:57;;;;;;;3.83;2.70;;;25.40;49.60;;;;;;5068279;28;20413;-80
2022/06/11 02:55:24;;;;;;;2.83;2.63;;;25.40;49.60;;;;;;5072075;28;20444;-80
2022/06/11 02:57:50;;;;;;;3.90;2.90;;;25.40;49.60;;;;;;5070138;28;20422;-80
2022/06/11 03:00:21;;;;;;;2.73;2.53;;;25.40;49.60;;;;;;5067986;28;20409;-81
2022/06/11 03:02:48;;;;;;;3.00;2.67;;;25.40;49.50;;;;;;5070641;28;20445;-80
2022/06/11 03:05:17;;;;;;;2.63;2.43;;;25.40;49.50;;;;;;5068426;28;20508;-80
2022/06/11 03:07:43;;;;;;;2.80;2.60;;;25.40;49.50;;;;;;5065208;28;20966;-80
2022/06/11 03:10:09;;;;;;;2.43;2.23;;;25.40;49.60;;;;;;5066140;28;20402;-80
2022/06/11 03:12:34;;;;;;;2.50;2.30;;;25.40;49.50;;;;;;5066136;28;20485;-81
2022/06/11 03:15:00;;;;;;;2.90;2.60;;;25.40;49.50;;;;;;5065462;28;20258;-81
2022/06/11 03:17:28;;;;;;;2.80;2.53;;;25.40;49.50;;;;;;5065844;28;20179;-81
2022/06/11 03:19:54;;;;;;;2.70;2.50;;;25.40;49.60;;;;;;5067926;28;20907;-81
2022/06/11 03:22:20;;;;;;;4.23;2.60;;;25.40;49.60;;;;;;5065733;28;20453;-81
2022/06/11 03:24:46;;;;;;;2.40;2.20;;;25.40;49.60;;;;;;5067676;28;20428;-81
2022/06/11 03:27:12;;;;;;;2.50;2.30;;;25.40;49.70;;;;;;5067837;28;20198;-81
2022/06/11 03:29:38;;;;;;;3.10;2.43;;;25.40;49.60;;;;;;5067731;28;20422;-81
2022/06/11 03:32:04;;;;;;;2.20;2.10;;;25.40;49.60;;;;;;5067246;28;20402;-80
2022/06/11 03:34:30;;;;;;;2.83;2.57;;;25.30;49.50;;;;;;5067053;28;20174;-80
2022/06/11 03:36:57;;;;;;;2.90;2.60;;;25.40;49.60;;;;;;5069129;28;20493;-80
2022/06/11 03:39:23;;;;;;;2.63;2.43;;;25.40;49.60;;;;;;5069860;28;20183;-80
2022/06/11 03:41:50;;;;;;;2.70;2.50;;;25.40;49.50;;;;;;5070192;28;20409;-81
2022/06/11 03:44:16;;;;;;;2.93;2.73;;;25.40;49.50;;;;;;5069278;28;20457;-79
2022/06/11 03:46:43;;;;;;;2.50;2.30;;;25.30;49.40;;;;;;5069308;28;20417;-82
2022/06/11 03:49:09;;;;;;;2.50;2.30;;;25.30;49.40;;;;;;5073458;28;20413;-81
2022/06/11 03:51:35;;;;;;;2.40;2.20;;;25.30;49.40;;;;;;5068956;28;20429;-80
2022/06/11 03:54:01;;;;;;;2.73;2.53;;;25.30;49.50;;;;;;5070189;28;20445;-81
2022/06/11 03:56:26;;;;;;;2.70;2.50;;;25.40;49.60;;;;;;5072290;28;20167;-80
2022/06/11 03:58:53;;;;;;;3.37;2.50;;;25.30;49.50;;;;;;5068098;28;20425;-80
2022/06/11 04:01:20;;;;;;;3.17;2.63;;;25.30;49.50;;;;;;5068119;28;20175;-80
2022/06/11 04:03:51;;;;;;;2.87;2.60;;;25.30;49.50;;;;;;5066641;28;20524;-81
2022/06/11 04:06:22;;;;;;;2.87;2.67;;;25.40;49.70;;;;;;5065714;28;20426;-80
2022/06/11 04:08:48;;;;;;;2.70;2.50;;;25.30;49.60;;;;;;5067007;28;20394;-80
2022/06/11 04:11:14;;;;;;;2.20;2.00;;;25.40;49.60;;;;;;5066819;28;20410;-80
2022/06/11 04:13:42;;;;;;;3.03;2.83;;;25.40;49.60;;;;;;5070163;28;20421;-80
2022/06/11 04:16:25;;;;;;;2.67;2.47;;;25.40;49.50;;;;;;5067941;28;20425;-81
2022/06/11 04:18:54;;;;;;;2.53;2.33;;;25.40;49.40;;;;;;5069834;28;20437;-83
2022/06/11 04:21:21;;;;;;;3.13;2.27;;;25.40;49.40;;;;;;5070772;28;20429;-81
2022/06/11 04:23:51;;;;;;;4.53;2.53;;;25.40;49.40;;;;;;5051031;28;20461;-81
2022/06/11 04:26:23;;;;;;;2.40;2.20;;;25.40;49.50;;;;;;5068607;28;20429;-80
2022/06/11 04:28:49;;;;;;;2.47;2.17;;;25.40;49.60;;;;;;5071259;28;20415;-80
2022/06/11 04:31:16;;;;;;;3.00;2.17;;;25.40;49.60;;;;;;5071998;28;20410;-80
2022/06/11 04:33:49;;;;;;;2.50;2.30;;;25.40;49.60;;;;;;5072418;28;20475;-81
2022/06/11 04:36:24;;;;;;;2.57;2.30;;;25.40;49.60;;;;;;5070042;28;20398;-82
2022/06/11 04:38:53;;;;;;;2.63;2.43;;;25.40;49.60;;;;;;5054660;28;20424;-81
2022/06/11 04:41:20;;;;;;;3.17;2.53;;;25.40;49.60;;;;;;5070771;28;20414;-81
2022/06/11 04:43:49;;;;;;;3.40;2.13;;;25.40;49.60;;;;;;5073069;28;20449;-81
2022/06/11 04:46:18;;;;;;;3.03;2.50;;;25.40;49.70;;;;;;5070987;28;20500;-82
2022/06/11 04:48:44;;;;;;;2.63;2.43;;;25.50;49.70;;;;;;5071890;28;20410;-82
2022/06/11 04:51:11;;;;;;;2.93;2.30;;;25.50;49.70;;;;;;5071937;28;20418;-82
2022/06/11 04:53:37;;;;;;;4.60;2.33;;;25.50;49.80;;;;;;5070251;28;20417;-81
2022/06/11 04:56:04;;;;;;;3.40;2.17;;;25.50;49.80;;;;;;5071609;28;20413;-81
2022/06/11 04:58:29;;;;;;;2.43;2.23;;;25.50;49.80;;;;;;5070552;28;20429;-81
2022/06/11 05:00:55;;;;;;;2.63;2.20;;;25.50;49.80;;;;;;5069369;28;20421;-81
2022/06/11 05:03:21;;;;;;;3.40;2.90;;;25.50;49.80;;;;;;5068768;28;20223;-81
2022/06/11 05:05:47;;;;;;;3.73;2.20;;;25.50;49.90;;;;;;5068934;28;20175;-81
2022/06/11 05:08:14;;;;;;;2.77;2.57;;;25.50;49.90;;;;;;5070010;28;20406;-82
2022/06/11 05:10:41;;;;;;;2.73;2.30;;;25.50;49.90;;;;;;5068196;28;20418;-81
2022/06/11 05:13:09;;;;;;;6.27;2.47;;;25.60;49.90;;;;;;5069269;28;20774;-81
2022/06/11 05:15:43;;;;;;;4.27;2.57;;;25.60;49.90;;;;;;5069224;28;20417;-81
2022/06/11 05:18:09;;;;;;;3.00;2.13;;;25.60;49.80;;;;;;5068886;28;20411;-81
2022/06/11 05:20:35;;;;;;;2.13;1.93;;;25.60;49.80;;;;;;5068765;28;20437;-81
2022/06/11 05:23:02;;;;;;;2.40;2.20;;;25.60;49.80;;;;;;5068467;28;20507;-81
2022/06/11 05:25:34;;;;;;;3.73;2.53;;;25.60;49.80;;;;;;5069128;28;20533;-80
2022/06/11 05:28:00;;;;;;;2.13;2.03;;;25.70;49.90;;;;;;5069198;28;20401;-80
2022/06/11 05:30:30;;;;;;;2.43;2.23;;;25.70;49.90;;;;;;5071715;28;20417;-80
2022/06/11 05:32:57;;;;;;;2.97;2.10;;;25.70;49.90;;;;;;5073717;28;20167;-80
2022/06/11 05:35:26;;;;;;;2.90;2.27;;;25.70;49.90;;;;;;5073231;28;20410;-80
2022/06/11 05:37:54;;;;;;;2.33;1.80;;;25.70;49.90;;;;;;5072844;28;20433;-81
2022/06/11 05:40:24;;;;;;;2.50;2.10;;;25.70;49.90;;;;;;5072412;28;20417;-81
2022/06/11 05:42:53;;;;;;;2.20;2.00;;;25.70;49.90;;;;;;5075496;28;20452;-81
2022/06/11 05:45:23;;;;;;;3.00;2.30;;;25.70;49.90;;;;;;5075470;28;20489;-81
2022/06/11 05:47:52;;;;;;;2.80;2.23;;;25.80;50.00;;;;;;5072413;28;20410;-81
2022/06/11 05:50:26;;;;;;;2.53;2.30;;;25.80;50.00;;;;;;5074822;28;20417;-81
2022/06/11 05:52:55;;;;;;;2.17;1.97;;;25.80;50.00;;;;;;5075334;28;20485;-81
2022/06/11 05:55:25;;;;;;;3.77;2.30;;;25.80;50.00;;;;;;5072109;28;20429;-81
2022/06/11 05:57:54;;;;;;;2.30;2.10;;;25.80;50.00;;;;;;5076916;28;20769;-80
2022/06/11 06:00:23;;;;;;;3.20;2.37;;;25.80;50.00;;;;;;5074669;28;20477;-80
2022/06/11 06:02:49;;;;;;;2.20;2.00;;;25.80;50.00;;;;;;5073466;28;20451;-80
2022/06/11 06:05:18;;;;;;;2.70;1.80;;;25.80;50.00;;;;;;5072904;28;20473;-80
2022/06/11 06:07:44;;;;;;;2.13;1.93;;;25.80;50.00;;;;;;5071341;28;20186;-82
2022/06/11 06:10:10;;;;;;;2.93;2.57;;;25.80;50.00;;;;;;5070879;28;20477;-81
2022/06/11 06:12:37;;;;;;;1.90;1.70;;;25.80;50.00;;;;;;5073029;28;20198;-81
2022/06/11 06:15:09;;;;;;;3.23;2.00;;;25.80;50.00;;;;;;5055374;28;20429;-82
2022/06/11 06:17:39;;;;;;;1.90;1.80;;;25.80;50.00;;;;;;5071715;28;20440;-82
2022/06/11 06:20:08;;;;;;;1.60;1.50;;;25.80;50.10;;;;;;5072414;28;20440;-82
2022/06/11 06:22:35;;;;;;;3.63;1.60;;;25.80;50.00;;;;;;5071521;28;20523;-82
2022/06/11 06:25:02;;;;;;;2.57;2.17;;;25.80;50.10;;;;;;5071139;28;20494;-81
2022/06/11 06:27:28;;;;;;;2.27;2.07;;;25.80;50.10;;;;;;5071406;28;20418;-82
2022/06/11 06:29:55;;;;;;;1.70;1.50;;;25.80;50.00;;;;;;5072151;28;20397;-81
2022/06/11 06:32:21;;;;;;;2.80;2.23;;;25.80;50.10;;;;;;5055173;28;20262;-81
2022/06/11 06:34:47;;;;;;;1.80;1.70;;;25.80;50.10;;;;;;5072281;28;20409;-81
2022/06/11 06:37:28;;;;;;;1.90;1.70;;;25.80;50.10;;;;;;5070548;28;20443;-80
2022/06/11 06:39:54;;;;;;;2.20;1.83;;;25.80;50.10;;;;;;5070755;28;20167;-81
2022/06/11 06:42:20;;;;;;;1.93;1.73;;;25.80;50.10;;;;;;5073633;28;20440;-81
2022/06/11 06:44:46;;;;;;;3.03;1.80;;;25.80;50.10;;;;;;5074805;28;20182;-80
2022/06/11 06:47:12;;;;;;;2.07;1.87;;;25.90;50.10;;;;;;5071882;28;20270;-80
2022/06/11 06:49:38;;;;;;;2.67;2.07;;;25.80;50.10;;;;;;5072467;28;20497;-81
2022/06/11 06:52:04;;;;;;;1.70;1.60;;;25.90;50.10;;;;;;5074444;28;20973;-81
2022/06/11 06:54:30;;;;;;;2.17;2.00;;;25.90;50.10;;;;;;5071249;28;20194;-80
2022/06/11 06:56:56;;;;;;;2.67;2.00;;;25.90;50.10;;;;;;5072308;28;20433;-80
2022/06/11 06:59:22;;;;;;;2.13;1.93;;;25.80;50.10;;;;;;5056402;28;20182;-80
2022/06/11 07:01:49;;;;;;;2.10;1.80;;;25.80;50.10;;;;;;5070441;28;20417;-81
2022/06/11 07:04:14;;;;;;;2.30;2.10;;;25.90;50.10;;;;;;5069992;28;20457;-80
2022/06/11 07:06:40;;;;;;;2.47;1.80;;;25.90;50.10;;;;;;5070311;28;20448;-80
2022/06/11 07:09:07;;;;;;;1.60;1.50;;;25.80;50.10;;;;;;5070473;28;20179;-80
2022/06/11 07:11:33;;;;;;;2.73;2.13;;;25.90;50.20;;;;;;5071489;28;20182;-81
2022/06/11 07:13:59;;;;;;;2.13;1.70;;;25.90;50.20;;;;;;5070674;28;20417;-81
2022/06/11 07:16:38;;;;;;;2.23;1.87;;;25.90;50.20;;;;;;5071165;28;20175;-80
2022/06/11 07:19:11;;;;;;;1.90;1.80;;;25.90;50.20;;;;;;5070398;28;20413;-81
2022/06/11 07:21:44;;;;;;;2.17;1.60;;;25.90;50.20;;;;;;5071072;28;20405;-81
2022/06/11 07:24:19;;;;;;;1.87;1.77;;;25.90;50.20;;;;;;5071222;28;20445;-81
2022/06/11 07:26:50;;;;;;;1.93;1.80;;;25.90;50.20;;;;;;5071035;28;20425;-81
2022/06/11 07:29:38;;;;;;;1.90;1.80;;;25.90;50.20;;;;;;5071580;28;20447;-81
2022/06/11 07:32:08;;;;;;;2.00;1.70;;;25.90;50.20;;;;;;5061963;28;20436;-81
2022/06/11 07:34:35;;;;;;;2.20;2.00;;;25.90;50.20;;;;;;5052902;28;20422;-81
2022/06/11 07:37:03;;;;;;;2.23;2.03;;;25.90;50.30;;;;;;5055042;28;20438;-81
2022/06/11 07:39:29;;;;;;;1.97;1.73;;;25.90;50.30;;;;;;5051417;28;20430;-81
2022/06/11 07:41:56;;;;;;;2.10;1.80;;;25.90;50.30;;;;;;5066142;28;20422;-81
2022/06/11 07:44:22;;;;;;;3.10;1.77;;;25.90;50.30;;;;;;5061763;28;20264;-80
2022/06/11 07:46:47;;;;;;;1.80;1.70;;;25.90;50.30;;;;;;5069530;28;20493;-81
2022/06/11 07:49:13;;;;;;;2.20;1.60;;;25.90;50.30;;;;;;5070218;28;20175;-81
2022/06/11 07:51:39;;;;;;;1.80;1.57;;;25.90;50.30;;;;;;5058902;28;20230;-81
2022/06/11 07:54:05;;;;;;;3.13;1.70;;;25.90;50.30;;;;;;5068187;28;20566;-81
2022/06/11 07:56:31;;;;;;;1.70;1.60;;;25.90;50.30;;;;;;5061747;28;20425;-81
2022/06/11 07:58:57;;;;;;;3.47;1.83;;;25.90;50.30;;;;;;5068884;28;20202;-81
2022/06/11 08:01:23;;;;;;;2.17;1.60;;;25.90;50.30;;;;;;5069339;28;20436;-81
2022/06/11 08:03:49;;;;;;;2.33;1.70;;;25.90;50.30;;;;;;5069434;28;20218;-81
2022/06/11 08:06:14;;;;;;;2.00;1.70;;;25.90;50.30;;;;;;5064964;28;20183;-81
2022/06/11 08:08:41;;;;;;;2.43;2.00;;;25.90;50.30;;;;;;5051145;28;20191;-81
2022/06/11 08:11:08;;;;;;;2.47;1.70;;;25.90;50.30;;;;;;5051056;28;20176;-81
2022/06/11 08:13:34;;;;;;;3.03;1.50;;;25.90;50.30;;;;;;5065859;28;20436;-81
2022/06/11 08:16:01;;;;;;;2.00;1.77;;;25.90;50.30;;;;;;5067500;28;20429;-81
2022/06/11 08:18:29;;;;;;;2.70;1.87;;;25.90;50.30;;;;;;5068284;28;20668;-81
2022/06/11 08:20:55;;;;;;;1.87;1.70;;;25.90;50.30;;;;;;5067556;28;20421;-81
2022/06/11 08:23:23;;;;;;;2.20;1.63;;;25.90;50.30;;;;;;5068332;28;20454;-81
2022/06/11 08:25:49;;;;;;;1.80;1.70;;;25.90;50.30;;;;;;5063164;28;20172;-80
2022/06/11 08:28:17;;;;;;;2.10;1.77;;;25.90;50.30;;;;;;5067141;28;20421;-81
2022/06/11 08:30:43;;;;;;;2.40;1.40;;;25.90;50.30;;;;;;5068261;28;20422;-81
2022/06/11 08:33:10;;;;;;;2.10;1.87;;;25.90;50.40;;;;;;5067630;28;20501;-81
2022/06/11 08:35:35;;;;;;;3.00;2.10;;;25.90;50.30;;;;;;5067927;28;20551;-81
2022/06/11 08:38:03;;;;;;;2.60;1.60;;;25.90;50.40;;;;;;5068319;28;20425;-80
2022/06/11 08:40:38;;;;;;;2.87;1.83;;;25.90;50.40;;;;;;5067432;28;20183;-80
2022/06/11 08:43:19;;;;;;;2.57;2.20;;;25.90;50.40;;;;;;5066389;28;20463;-81
2022/06/11 08:46:01;;;;;;;3.40;2.03;;;25.90;50.40;;;;;;5062198;28;20424;-80
2022/06/11 08:48:39;;;;;;;2.10;1.67;;;25.90;50.40;;;;;;5067378;28;20425;-80
2022/06/11 08:51:13;;;;;;;1.93;1.63;;;25.90;50.40;;;;;;5066014;28;20409;-80
2022/06/11 08:53:39;;;;;;;2.47;2.10;;;25.90;50.40;;;;;;5061209;28;20420;-80
2022/06/11 08:56:21;;;;;;;3.47;1.80;;;25.90;50.50;;;;;;5070492;28;20449;-80
2022/06/11 08:59:05;;;;;;;2.27;1.80;;;25.90;50.50;;;;;;5069359;28;20413;-80
2022/06/11 09:01:47;;;;;;;3.17;1.83;;;25.90;50.50;;;;;;5072184;28;20405;-80
2022/06/11 09:04:28;;;;;;;3.43;2.17;;;25.90;50.50;;;;;;5072063;28;20472;-80
2022/06/11 09:07:17;;;;;;;2.13;1.80;;;25.90;50.50;;;;;;5071619;28;20428;-80
2022/06/11 09:10:01;;;;;;;1.93;1.60;;;25.90;50.50;;;;;;5067381;28;20413;-80
2022/06/11 09:12:39;;;;;;;2.40;1.80;;;25.90;50.50;;;;;;5071728;28;20424;-80
2022/06/11 09:15:32;;;;;;;2.13;1.93;;;25.90;50.50;;;;;;5071264;28;20417;-80
2022/06/11 09:18:19;;;;;;;2.50;1.87;;;25.90;50.50;;;;;;5070232;28;20426;-80
2022/06/11 09:21:07;;;;;;;2.03;1.83;;;25.90;50.50;;;;;;5067726;28;20422;-80
2022/06/11 09:23:58;;;;;;;2.20;1.80;;;25.90;50.50;;;;;;5065617;28;20487;-80
2022/06/11 09:26:40;;;;;;;1.57;1.40;;;25.90;50.50;;;;;;5071782;28;20393;-80
2022/06/11 09:29:18;;;;;;;2.70;1.53;;;25.90;50.50;;;;;;5073672;28;20481;-80
2022/06/11 09:31:45;;;;;;;1.97;1.77;;;25.90;50.50;;;;;;5064892;28;20422;-81
2022/06/11 09:34:12;;;;;;;2.30;1.70;;;25.90;50.50;;;;;;5070112;28;20429;-80
2022/06/11 09:36:55;;;;;;;3.10;1.90;;;25.90;50.50;;;;;;5068297;28;20421;-82
2022/06/11 09:39:36;;;;;;;4.27;2.07;;;25.90;50.50;;;;;;5065948;28;20429;-83
2022/06/11 09:42:11;;;;;;;2.20;1.80;;;25.90;50.60;;;;;;5067796;28;20440;-80
2022/06/11 09:44:43;;;;;;;3.50;2.57;;;25.90;50.60;;;;;;5068360;28;20420;-81
2022/06/11 09:47:25;;;;;;;2.27;1.90;;;25.90;50.60;;;;;;5068100;28;20472;-81
2022/06/11 09:50:28;;;;;;;2.63;1.80;;;25.90;50.60;;;;;;5062972;28;20406;-81
2022/06/11 09:53:18;;;;;;;3.03;2.07;;;25.90;50.60;;;;;;5069766;28;20420;-81
2022/06/11 09:56:13;;;;;;;2.43;1.67;;;25.90;50.70;;;;;;5064806;28;20452;-81
2022/06/11 09:59:20;;;;;;;3.30;2.13;;;25.90;50.70;;;;;;4996708;28;20428;-81
2022/06/11 10:02:30;;;;;;;2.70;1.70;;;25.90;50.70;;;;;;4992054;28;20417;-81
2022/06/11 10:05:04;;;;;;;1.60;1.50;;;25.90;50.70;;;;;;4960610;29;20489;-81
2022/06/11 10:07:36;;;;;;;5.13;2.23;;;25.90;50.70;;;;;;4962196;28;20971;-81
2022/06/11 10:10:26;;;;;;;3.10;1.97;;;25.90;50.70;;;;;;4982513;28;20440;-81
2022/06/11 10:13:02;;;;;;;2.70;2.00;;;25.90;50.70;;;;;;4973242;29;20565;-81
2022/06/11 10:15:46;;;;;;;3.43;1.70;;;25.90;50.70;;;;;;4973900;28;20393;-81
2022/06/11 10:18:32;;;;;;;2.27;1.90;;;25.90;50.70;;;;;;4989453;28;20430;-81
2022/06/11 10:21:12;;;;;;;3.67;1.77;;;25.90;50.70;;;;;;4969454;28;20424;-81
2022/06/11 10:24:03;;;;;;;2.13;1.90;;;25.90;50.70;;;;;;4986771;28;20469;-81
2022/06/11 10:26:44;;;;;;;1.77;1.60;;;25.90;50.70;;;;;;4990499;28;20425;-81
2022/06/11 10:29:43;;;;;;;3.30;1.97;;;25.90;50.70;;;;;;4982952;28;20418;-81
2022/06/11 10:32:26;;;;;;;3.97;1.83;;;25.90;50.80;;;;;;4923302;29;20412;-80
2022/06/11 10:35:12;;;;;;;2.67;1.93;;;25.90;50.70;;;;;;4912470;29;20420;-80
2022/06/11 10:37:57;;;;;;;2.93;1.90;;;25.90;50.70;;;;;;4940585;28;20443;-81
2022/06/11 10:40:42;;;;;;;2.63;1.67;;;25.90;50.80;;;;;;4990566;28;20505;-81
2022/06/11 10:43:30;;;;;;;2.73;1.70;;;25.90;50.70;;;;;;4988497;28;20464;-81
2022/06/11 10:45:56;;;;;;;2.07;1.87;;;25.90;50.80;;;;;;5006700;28;20998;-81
2022/06/11 10:48:24;;;;;;;2.83;1.60;;;25.90;50.80;;;;;;4996152;28;20475;-81
2022/06/11 10:51:01;;;;;;;2.27;1.70;;;25.90;50.80;;;;;;4999672;28;20440;-81
2022/06/11 10:54:07;;;;;;;2.47;1.50;;;25.90;50.80;;;;;;5012373;28;20479;-81
2022/06/11 10:56:58;;;;;;;4.47;2.00;;;25.90;50.70;;;;;;5009869;28;20462;-81
2022/06/11 10:59:34;;;;;;;2.33;1.80;;;25.90;50.80;;;;;;4992937;28;20481;-81
2022/06/11 11:02:41;;;;;;;3.27;1.93;;;25.90;50.80;;;;;;4990353;28;20421;-80
2022/06/11 11:05:18;;;;;;;1.90;1.60;;;25.90;50.80;;;;;;4974728;29;20462;-80
2022/06/11 11:08:32;;;;;;;3.57;1.70;;;25.90;50.80;;;;;;4960984;29;20430;-81
2022/06/11 11:11:01;;;;;;;2.80;1.83;;;25.90;50.80;;;;;;5013638;28;21028;-81
2022/06/11 11:13:46;;;;;;;2.20;1.70;;;25.90;50.80;;;;;;5016858;28;20400;-80
2022/06/11 11:16:30;;;;;;;2.87;2.17;;;25.90;50.80;;;;;;5001826;28;20409;-80
2022/06/11 11:19:38;;;;;;;3.07;1.90;;;25.90;50.80;;;;;;4998330;28;20460;-81
2022/06/11 11:22:15;;;;;;;2.07;1.87;;;25.90;50.80;;;;;;4978997;28;20433;-80
2022/06/11 11:24:51;;;;;;;2.77;1.60;;;25.90;50.90;;;;;;5005606;28;20423;-80
2022/06/11 11:27:29;;;;;;;2.33;1.67;;;25.90;50.90;;;;;;4996549;28;20511;-80
2022/06/11 11:30:20;;;;;;;2.33;1.60;;;25.90;50.80;;;;;;4996586;28;20432;-81
2022/06/11 11:32:50;;;;;;;3.00;1.73;;;25.90;50.80;;;;;;4980043;28;20433;-80
2022/06/11 11:35:40;;;;;;;3.07;1.70;;;26.00;50.90;;;;;;5001897;28;20444;-81
2022/06/11 11:38:22;;;;;;;5.23;3.43;;;25.90;50.80;;;;;;5015747;28;20408;-80
2022/06/11 11:40:59;;;;;;;1.90;1.70;;;25.90;50.80;;;;;;4994648;28;20439;-81
2022/06/11 11:43:43;;;;;;;1.83;1.70;;;26.00;50.90;;;;;;5004515;28;20470;-80
2022/06/11 11:46:32;;;;;;;4.20;2.20;;;26.00;50.90;;;;;;5020043;28;20442;-81
2022/06/11 11:49:04;;;;;;;2.80;2.60;;;26.00;50.90;;;;;;5035535;28;20378;-81
2022/06/11 11:51:44;;;;;;;2.30;1.97;;;26.00;50.90;;;;;;5019753;28;20392;-81
2022/06/11 11:54:22;;;;;;;1.87;1.70;;;26.00;50.90;;;;;;5035106;28;20423;-80
2022/06/11 11:56:56;;;;;;;2.10;1.77;;;26.00;50.90;;;;;;5018754;28;20420;-80
2022/06/11 11:59:31;;;;;;;2.80;1.80;;;26.00;50.90;;;;;;5042925;28;20426;-80
2022/06/11 12:02:26;;;;;;;2.07;1.90;;;26.00;50.90;;;;;;5052202;28;20414;-80
2022/06/11 12:05:07;;;;;;;2.33;1.93;;;26.00;50.90;;;;;;5042157;28;20418;-80
2022/06/11 12:07:47;;;;;;;2.00;1.80;;;26.00;50.90;;;;;;5056723;28;20439;-80
2022/06/11 12:10:39;;;;;;;2.60;1.80;;;26.00;50.90;;;;;;5056548;28;20407;-80
2022/06/11 12:13:35;;;;;;;2.03;1.70;;;26.00;50.90;;;;;;5056154;28;20410;-81
2022/06/11 12:16:06;;;;;;;2.30;1.60;;;26.00;50.90;;;;;;5055573;28;20426;-81
2022/06/11 12:18:42;;;;;;;2.13;1.70;;;26.00;51.00;;;;;;5055942;28;20411;-80
2022/06/11 12:21:24;;;;;;;3.70;2.07;;;26.00;51.00;;;;;;5055141;28;20406;-81
2022/06/11 12:24:08;;;;;;;1.80;1.70;;;26.00;50.90;;;;;;5055960;28;20462;-80
2022/06/11 12:26:40;;;;;;;2.67;1.77;;;26.00;50.90;;;;;;5055149;28;20398;-80
2022/06/11 12:29:44;;;;;;;2.87;1.90;;;26.00;51.00;;;;;;5055757;28;20395;-80
2022/06/11 12:32:20;;;;;;;3.40;1.83;;;26.00;51.00;;;;;;5055593;28;20418;-80
2022/06/11 12:34:48;;;;;;;3.50;1.60;;;26.00;51.00;;;;;;5056736;28;20378;-81
2022/06/11 12:38:05;;;;;;;1.60;1.40;;;26.00;51.00;;;;;;5055017;28;20422;-82
2022/06/11 12:40:49;;;;;;;2.20;1.97;;;26.00;51.00;;;;;;4919029;29;20409;-81
2022/06/11 12:43:51;;;;;;;2.47;1.50;;;26.00;51.00;;;;;;4919087;29;20522;-81
2022/06/11 12:46:41;;;;;;;2.33;1.77;;;26.00;51.00;;;;;;4903797;29;20517;-80
2022/06/11 12:49:40;;;;;;;2.10;1.67;;;26.00;51.00;;;;;;4904251;29;20409;-81
2022/06/11 12:52:33;;;;;;;2.30;1.77;;;26.00;51.00;;;;;;4919011;29;20469;-81
2022/06/11 12:55:38;;;;;;;3.30;2.00;;;26.00;51.00;;;;;;4900888;29;20450;-80
2022/06/11 12:58:31;;;;;;;1.60;1.50;;;26.00;51.10;;;;;;4811101;29;20445;-81
2022/06/11 13:01:05;;;;;;;2.00;1.70;;;26.00;51.10;;;;;;4808599;30;20418;-81
2022/06/11 13:03:55;;;;;;;2.33;1.90;;;26.00;51.10;;;;;;4809050;30;20540;-81
2022/06/11 13:06:58;;;;;;;2.70;1.67;;;26.00;51.10;;;;;;4808601;30;20446;-81
2022/06/11 13:10:02;;;;;;;2.73;1.80;;;26.00;51.10;;;;;;4721701;30;20480;-80
2022/06/11 13:12:50;;;;;;;2.43;1.60;;;26.00;51.10;;;;;;4736310;30;20448;-80
2022/06/11 13:16:02;;;;;;;2.23;1.50;;;26.00;51.10;;;;;;4722385;30;20432;-80
2022/06/11 13:18:47;;;;;;;2.80;1.40;;;26.00;51.10;;;;;;4754470;30;20420;-80
2022/06/11 13:21:52;;;;;;;1.80;1.60;;;26.00;51.10;;;;;;4754165;30;20404;-80
2022/06/11 13:24:47;;;;;;;1.97;1.57;;;26.00;51.10;;;;;;4736853;30;20545;-80
2022/06/11 13:27:57;;;;;;;2.53;1.70;;;26.00;51.10;;;;;;4737164;30;20448;-80
2022/06/11 13:31:01;;;;;;;1.83;1.60;;;26.00;51.10;;;;;;4687334;30;20431;-80